createdAt,value
2022-12-03T00:02:15.249Z,8.53
2022-12-03T00:04:42.165Z,8.57
2022-12-03T00:07:09.207Z,8.57
2022-12-03T00:09:35.905Z,8.40
2022-12-03T00:12:02.644Z,9.20
2022-12-03T00:14:29.437Z,8.80
2022-12-03T00:16:56.525Z,8.60
2022-12-03T00:19:23.492Z,8.33
2022-12-03T00:21:50.261Z,8.30
2022-12-03T00:24:17.031Z,8.77
2022-12-03T00:26:43.780Z,7.33
2022-12-03T00:29:11.218Z,8.93
2022-12-03T00:31:37.970Z,9.60
2022-12-03T00:34:04.799Z,7.67
2022-12-03T00:36:31.518Z,7.97
2022-12-03T00:38:58.239Z,8.00
2022-12-03T00:41:25.009Z,7.30
2022-12-03T00:43:51.789Z,7.57
2022-12-03T00:46:21.577Z,7.17
2022-12-03T00:48:48.576Z,7.57
2022-12-03T00:51:15.322Z,8.77
2022-12-03T00:53:42.139Z,8.63
2022-12-03T00:56:09.176Z,8.83
2022-12-03T00:58:36.017Z,8.13
2022-12-03T01:01:02.741Z,7.60
2022-12-03T01:03:29.722Z,7.67
2022-12-03T01:05:56.448Z,7.40
2022-12-03T01:08:23.178Z,7.30
2022-12-03T01:10:50.541Z,7.23
2022-12-03T01:13:17.476Z,7.43
2022-12-03T01:15:44.298Z,7.97
2022-12-03T01:18:11.375Z,7.47
2022-12-03T01:20:38.694Z,7.50
2022-12-03T01:23:05.692Z,7.47
2022-12-03T01:25:32.516Z,6.87
2022-12-03T01:27:59.234Z,6.47
2022-12-03T01:30:25.919Z,7.73
2022-12-03T01:32:52.762Z,7.10
2022-12-03T01:35:19.712Z,6.77
2022-12-03T01:37:46.412Z,6.80
2022-12-03T01:40:22.782Z,6.30
2022-12-03T01:42:49.450Z,7.30
2022-12-03T01:45:23.710Z,6.80
2022-12-03T01:47:51.069Z,6.47
2022-12-03T01:50:31.422Z,6.77
2022-12-03T01:53:01.022Z,6.77
2022-12-03T01:55:27.956Z,6.07
2022-12-03T01:57:58.144Z,7.77
2022-12-03T02:00:29.554Z,6.77
2022-12-03T02:03:10.891Z,7.40
2022-12-03T02:05:38.572Z,7.60
2022-12-03T02:08:27.239Z,6.80
2022-12-03T02:10:54.085Z,7.83
2022-12-03T02:13:20.812Z,6.87
2022-12-03T02:15:47.597Z,6.70
2022-12-03T02:18:14.392Z,6.80
2022-12-03T02:21:05.787Z,7.20
2022-12-03T02:23:53.871Z,6.77
2022-12-03T02:26:20.941Z,6.87
2022-12-03T02:28:47.735Z,7.10
2022-12-03T02:31:14.551Z,7.00
2022-12-03T02:33:41.493Z,6.70
2022-12-03T02:36:08.880Z,7.30
2022-12-03T02:38:36.238Z,7.03
2022-12-03T02:41:08.078Z,7.03
2022-12-03T02:43:35.274Z,7.50
2022-12-03T02:46:03.642Z,7.27
2022-12-03T02:48:34.896Z,7.40
2022-12-03T02:51:05.375Z,7.37
2022-12-03T02:53:42.274Z,7.03
2022-12-03T02:56:11.305Z,7.50
2022-12-03T02:58:38.732Z,8.40
2022-12-03T03:01:06.184Z,8.40
2022-12-03T03:03:33.823Z,7.60
2022-12-03T03:06:02.722Z,6.80
2022-12-03T03:08:30.792Z,7.67
2022-12-03T03:10:59.686Z,6.97
2022-12-03T03:13:26.541Z,7.80
2022-12-03T03:15:53.370Z,8.80
2022-12-03T03:18:20.237Z,6.83
2022-12-03T03:20:47.031Z,7.70
2022-12-03T03:23:21.410Z,8.20
2022-12-03T03:25:52.029Z,8.23
2022-12-03T03:28:18.984Z,8.30
2022-12-03T03:30:46.541Z,8.53
2022-12-03T03:33:15.315Z,8.23
2022-12-03T03:35:43.181Z,8.83
2022-12-03T03:38:10.573Z,9.20
2022-12-03T03:40:38.449Z,7.80
2022-12-03T03:43:06.395Z,9.03
2022-12-03T03:45:33.646Z,9.40
2022-12-03T03:48:01.164Z,7.80
2022-12-03T03:50:31.333Z,8.37
2022-12-03T03:52:59.942Z,9.27
2022-12-03T03:55:27.397Z,8.67
2022-12-03T03:57:54.671Z,9.10
2022-12-03T04:00:21.553Z,8.57
2022-12-03T04:02:48.329Z,8.53
2022-12-03T04:05:21.586Z,9.73
2022-12-03T04:07:48.498Z,8.30
2022-12-03T04:10:34.029Z,8.00
2022-12-03T04:13:01.428Z,9.67
2022-12-03T04:15:28.280Z,9.80
2022-12-03T04:18:14.165Z,9.57
2022-12-03T04:20:40.995Z,8.57
2022-12-03T04:23:08.210Z,8.90
2022-12-03T04:25:53.641Z,9.23
2022-12-03T04:28:50.550Z,8.97
2022-12-03T04:31:35.751Z,9.40
2022-12-03T04:34:21.099Z,10.40
2022-12-03T04:36:47.872Z,9.40
2022-12-03T04:39:14.666Z,9.97
2022-12-03T04:41:41.472Z,9.73
2022-12-03T04:44:26.698Z,9.30
2022-12-03T04:46:53.411Z,10.63
2022-12-03T04:49:20.164Z,9.57
2022-12-03T04:51:46.836Z,9.57
2022-12-03T04:54:13.569Z,10.30
2022-12-03T04:56:40.335Z,10.03
2022-12-03T04:59:10.139Z,10.73
2022-12-03T05:01:41.296Z,9.53
2022-12-03T05:04:08.021Z,10.07
2022-12-03T05:06:34.821Z,9.90
2022-12-03T05:09:01.568Z,10.20
2022-12-03T05:11:28.455Z,10.37
2022-12-03T05:13:55.255Z,8.50
2022-12-03T05:16:22.587Z,9.43
2022-12-03T05:18:49.316Z,9.80
2022-12-03T05:21:16.054Z,10.23
2022-12-03T05:23:42.858Z,9.77
2022-12-03T05:26:09.682Z,9.73
2022-12-03T05:28:36.506Z,9.83
2022-12-03T05:31:03.430Z,9.83
2022-12-03T05:33:30.327Z,8.97
2022-12-03T05:35:57.259Z,9.40
2022-12-03T05:38:24.011Z,8.80
2022-12-03T05:40:50.667Z,8.90
2022-12-03T05:43:17.333Z,9.30
2022-12-03T05:45:44.828Z,9.27
2022-12-03T05:48:13.744Z,8.50
2022-12-03T05:50:44.375Z,8.93
2022-12-03T05:53:11.995Z,8.70
2022-12-03T05:55:39.063Z,9.13
2022-12-03T05:58:06.049Z,8.83
2022-12-03T06:00:42.531Z,9.13
2022-12-03T06:03:10.757Z,9.77
2022-12-03T06:05:37.708Z,9.00
2022-12-03T06:08:04.681Z,8.87
2022-12-03T06:10:31.481Z,8.57
2022-12-03T06:12:58.342Z,9.47
2022-12-03T06:15:25.164Z,8.17
2022-12-03T06:17:54.366Z,9.43
2022-12-03T06:20:21.542Z,8.23
2022-12-03T06:22:48.819Z,9.23
2022-12-03T06:25:16.720Z,9.30
2022-12-03T06:27:43.396Z,9.43
2022-12-03T06:30:13.034Z,9.10
2022-12-03T06:32:39.791Z,10.50
2022-12-03T06:35:06.692Z,9.03
2022-12-03T06:37:33.364Z,10.97
2022-12-03T06:40:00.114Z,10.83
2022-12-03T06:42:26.779Z,10.30
2022-12-03T06:44:53.616Z,10.30
2022-12-03T06:47:20.463Z,9.77
2022-12-03T06:49:47.169Z,9.70
2022-12-03T06:52:13.856Z,9.80
2022-12-03T06:54:40.639Z,10.10
2022-12-03T06:57:07.443Z,9.40
2022-12-03T06:59:35.817Z,9.83
2022-12-03T07:02:02.647Z,8.67
2022-12-03T07:04:29.463Z,8.63
2022-12-03T07:06:56.236Z,9.17
2022-12-03T07:09:22.995Z,8.47
2022-12-03T07:11:49.771Z,7.80
2022-12-03T07:14:16.550Z,8.40
2022-12-03T07:16:43.775Z,9.23
2022-12-03T07:19:11.431Z,8.50
2022-12-03T07:21:38.535Z,9.47
2022-12-03T07:24:06.041Z,8.10
2022-12-03T07:26:33.343Z,8.93
2022-12-03T07:29:00.148Z,9.20
2022-12-03T07:31:27.225Z,9.00
2022-12-03T07:33:54.012Z,10.20
2022-12-03T07:36:20.810Z,9.03
2022-12-03T07:38:47.574Z,9.00
2022-12-03T07:41:14.361Z,8.27
2022-12-03T07:43:41.135Z,8.10
2022-12-03T07:46:08.624Z,9.30
2022-12-03T07:48:35.464Z,8.27
2022-12-03T07:51:02.259Z,7.93
2022-12-03T07:53:29.113Z,9.00
2022-12-03T07:55:55.850Z,8.40
2022-12-03T07:58:22.664Z,8.17
2022-12-03T08:00:49.557Z,8.60
2022-12-03T08:03:16.336Z,9.33
2022-12-03T08:05:42.989Z,8.07
2022-12-03T08:08:09.776Z,8.80
2022-12-03T08:10:36.554Z,8.80
2022-12-03T08:13:07.331Z,8.70
2022-12-03T08:15:39.311Z,8.97
2022-12-03T08:18:18.346Z,8.87
2022-12-03T08:20:47.769Z,8.27
2022-12-03T08:23:20.164Z,9.47
2022-12-03T08:25:47.656Z,8.40
2022-12-03T08:28:21.839Z,9.70
2022-12-03T08:31:20.131Z,7.90
2022-12-03T08:33:49.320Z,9.70
2022-12-03T08:36:19.040Z,8.67
2022-12-03T08:38:53.032Z,9.60
2022-12-03T08:41:40.529Z,8.17
2022-12-03T08:44:29.695Z,9.33
2022-12-03T08:47:16.392Z,8.50
2022-12-03T08:50:06.546Z,9.30
2022-12-03T08:52:34.682Z,8.37
2022-12-03T08:55:31.131Z,8.40
2022-12-03T08:57:58.661Z,8.60
2022-12-03T09:00:25.596Z,9.60
2022-12-03T09:02:54.523Z,9.27
2022-12-03T09:05:30.236Z,8.90
2022-12-03T09:07:56.985Z,7.10
2022-12-03T09:10:23.765Z,8.53
2022-12-03T09:12:50.544Z,8.60
2022-12-03T09:15:17.312Z,9.27
2022-12-03T09:17:44.064Z,8.97
2022-12-03T09:20:11.192Z,8.30
2022-12-03T09:22:38.114Z,8.03
2022-12-03T09:25:05.416Z,9.43
2022-12-03T09:27:32.247Z,7.90
2022-12-03T09:29:59.097Z,7.90
2022-12-03T09:32:26.038Z,8.63
2022-12-03T09:34:53.190Z,7.60
2022-12-03T09:37:22.053Z,8.00
2022-12-03T09:39:49.135Z,8.50
2022-12-03T09:42:16.127Z,9.60
2022-12-03T09:44:43.709Z,7.20
2022-12-03T09:47:10.743Z,7.80
2022-12-03T09:49:38.506Z,7.93
2022-12-03T09:52:07.082Z,8.40
2022-12-03T09:54:34.443Z,12.77
2022-12-03T09:57:04.122Z,8.07
2022-12-03T09:59:33.342Z,8.20
2022-12-03T10:02:01.478Z,8.00
2022-12-03T10:04:28.925Z,8.57
2022-12-03T10:06:58.540Z,8.20
2022-12-03T10:09:28.148Z,7.73
2022-12-03T10:11:59.860Z,7.90
2022-12-03T10:14:28.297Z,8.80
2022-12-03T10:16:55.736Z,7.67
2022-12-03T10:19:31.660Z,9.00
2022-12-03T10:21:58.775Z,7.30
2022-12-03T10:24:29.588Z,8.00
2022-12-03T10:27:05.754Z,8.13
2022-12-03T10:29:35.130Z,9.97
2022-12-03T10:32:06.081Z,7.60
2022-12-03T10:34:34.100Z,8.53
2022-12-03T10:37:14.816Z,8.10
2022-12-03T10:40:00.235Z,8.07
2022-12-03T10:42:33.670Z,8.73
2022-12-03T10:45:20.951Z,14.77
2022-12-03T10:48:21.145Z,7.93
2022-12-03T10:50:53.401Z,9.03
2022-12-03T10:53:22.469Z,8.07
2022-12-03T10:55:51.773Z,7.83
2022-12-03T10:58:23.307Z,8.63
2022-12-03T11:00:53.769Z,8.57
2022-12-03T11:03:29.694Z,8.20
2022-12-03T11:05:59.882Z,7.67
2022-12-03T11:08:30.648Z,8.43
2022-12-03T11:11:06.901Z,8.43
2022-12-03T11:13:33.663Z,8.40
2022-12-03T11:16:02.433Z,8.53
2022-12-03T11:18:59.163Z,9.43
2022-12-03T11:21:26.188Z,8.87
2022-12-03T11:23:52.948Z,9.23
2022-12-03T11:26:28.823Z,9.03
2022-12-03T11:28:59.940Z,9.27
2022-12-03T11:31:42.231Z,8.30
2022-12-03T11:34:21.322Z,8.67
2022-12-03T11:37:09.614Z,8.80
2022-12-03T11:39:45.571Z,8.40
2022-12-03T11:42:27.049Z,9.27
2022-12-03T11:45:02.960Z,8.83
2022-12-03T11:47:37.546Z,9.30
2022-12-03T11:50:39.388Z,10.43
2022-12-03T11:53:23.709Z,10.10
2022-12-03T11:56:08.529Z,9.40
2022-12-03T11:58:38.412Z,11.07
2022-12-03T12:01:07.547Z,9.60
2022-12-03T12:03:37.264Z,10.77
2022-12-03T12:06:15.521Z,10.03
2022-12-03T12:08:57.054Z,9.30
2022-12-03T12:11:32.780Z,10.53
2022-12-03T12:14:07.768Z,10.07
2022-12-03T12:16:52.195Z,10.23
2022-12-03T12:19:42.139Z,9.97
2022-12-03T12:22:14.965Z,10.60
2022-12-03T12:24:46.850Z,11.43
2022-12-03T12:27:17.904Z,10.97
2022-12-03T12:29:50.517Z,10.93
2022-12-03T12:32:19.356Z,10.63
2022-12-03T12:34:48.970Z,11.97
2022-12-03T12:37:32.839Z,10.00
2022-12-03T12:40:02.701Z,12.20
2022-12-03T12:42:32.663Z,11.40
2022-12-03T12:45:14.397Z,10.60
2022-12-03T12:47:50.602Z,11.60
2022-12-03T12:50:18.736Z,10.80
2022-12-03T12:52:52.450Z,10.80
2022-12-03T12:55:19.945Z,10.87
2022-12-03T12:57:46.920Z,10.80
2022-12-03T13:00:23.807Z,11.83
2022-12-03T13:03:04.772Z,11.20
2022-12-03T13:05:51.196Z,11.67
2022-12-03T13:08:22.630Z,12.60
2022-12-03T13:10:50.243Z,14.03
2022-12-03T13:13:40.109Z,13.03
2022-12-03T13:16:19.285Z,12.87
2022-12-03T13:18:47.585Z,13.57
2022-12-03T13:21:39.587Z,12.57
2022-12-03T13:24:39.475Z,11.90
2022-12-03T13:27:18.169Z,11.43
2022-12-03T13:30:07.003Z,14.00
2022-12-03T13:32:36.090Z,11.53
2022-12-03T13:35:07.668Z,12.07
2022-12-03T13:37:34.620Z,13.00
2022-12-03T13:40:17.556Z,12.90
2022-12-03T13:42:46.491Z,13.30
2022-12-03T13:45:19.443Z,11.93
2022-12-03T13:47:49.156Z,11.60
2022-12-03T13:50:36.490Z,11.80
2022-12-03T13:53:27.378Z,11.40
2022-12-03T13:56:03.097Z,12.40
2022-12-03T13:58:29.912Z,12.00
2022-12-03T14:00:56.705Z,12.10
2022-12-03T14:03:23.549Z,13.60
2022-12-03T14:05:50.319Z,13.27
2022-12-03T14:08:17.140Z,12.53
2022-12-03T14:10:43.942Z,12.33
2022-12-03T14:13:11.415Z,11.50
2022-12-03T14:15:38.116Z,12.97
2022-12-03T14:18:04.964Z,12.90
2022-12-03T14:20:31.793Z,11.73
2022-12-03T14:22:59.665Z,12.90
2022-12-03T14:25:27.040Z,13.80
2022-12-03T14:27:53.927Z,12.83
2022-12-03T14:30:20.640Z,12.50
2022-12-03T14:32:47.512Z,12.67
2022-12-03T14:35:14.325Z,14.00
2022-12-03T14:37:41.907Z,12.20
2022-12-03T14:40:09.172Z,12.07
2022-12-03T14:42:36.736Z,14.03
2022-12-03T14:45:04.059Z,13.27
2022-12-03T14:47:30.853Z,13.87
2022-12-03T14:49:57.848Z,12.67
2022-12-03T14:52:25.207Z,14.30
2022-12-03T14:54:51.955Z,12.93
2022-12-03T14:57:18.961Z,13.00
2022-12-03T14:59:47.250Z,13.03
2022-12-03T15:02:14.700Z,13.30
2022-12-03T15:04:42.266Z,13.53
2022-12-03T15:07:10.153Z,14.00
2022-12-03T15:09:37.402Z,14.10
2022-12-03T15:12:05.165Z,12.67
2022-12-03T15:14:31.987Z,13.40
2022-12-03T15:16:59.339Z,13.30
2022-12-03T15:19:26.147Z,14.13
2022-12-03T15:21:53.027Z,13.17
2022-12-03T15:24:19.775Z,14.13
2022-12-03T15:26:46.713Z,13.73
2022-12-03T15:29:13.477Z,13.57
2022-12-03T15:31:40.466Z,14.30
2022-12-03T15:34:07.331Z,12.80
2022-12-03T15:36:34.167Z,13.47
2022-12-03T15:39:00.978Z,13.90
2022-12-03T15:41:30.648Z,14.40
2022-12-03T15:44:00.170Z,14.13
2022-12-03T15:46:27.904Z,14.20
2022-12-03T15:48:55.438Z,13.60
2022-12-03T15:51:22.344Z,13.80
2022-12-03T15:53:49.351Z,14.70
2022-12-03T15:56:16.634Z,13.83
2022-12-03T15:58:43.418Z,16.17
2022-12-03T16:01:10.574Z,14.20
2022-12-03T16:03:37.340Z,15.63
2022-12-03T16:06:04.237Z,14.70
2022-12-03T16:08:31.055Z,14.67
2022-12-03T16:10:57.978Z,13.60
2022-12-03T16:13:24.756Z,14.67
2022-12-03T16:15:51.622Z,15.10
2022-12-03T16:18:18.606Z,15.17
2022-12-03T16:20:45.289Z,13.80
2022-12-03T16:23:12.120Z,13.10
2022-12-03T16:25:38.890Z,14.43
2022-12-03T16:28:05.634Z,15.00
2022-12-03T16:30:32.354Z,14.80
2022-12-03T16:32:59.088Z,15.53
2022-12-03T16:35:25.865Z,16.20
2022-12-03T16:37:52.613Z,16.00
2022-12-03T16:40:19.495Z,15.60
2022-12-03T16:42:46.237Z,14.70
2022-12-03T16:45:33.282Z,14.80
2022-12-03T16:48:01.109Z,15.60
2022-12-03T16:50:30.331Z,15.90
2022-12-03T16:52:58.036Z,15.53
2022-12-03T16:55:25.020Z,14.33
2022-12-03T16:57:51.932Z,15.60
2022-12-03T17:00:21.688Z,15.10
2022-12-03T17:02:48.772Z,13.57
2022-12-03T17:05:15.631Z,14.90
2022-12-03T17:07:42.496Z,14.10
2022-12-03T17:10:09.962Z,13.97
2022-12-03T17:13:07.211Z,14.60
2022-12-03T17:15:23.697Z,14.60
2022-12-03T17:17:50.561Z,17.13
2022-12-03T17:20:17.887Z,12.97
2022-12-03T17:22:44.757Z,12.70
2022-12-03T17:25:12.130Z,12.70
2022-12-03T17:27:44.852Z,12.93
2022-12-03T17:30:12.838Z,13.27
2022-12-03T17:32:39.725Z,13.97
2022-12-03T17:35:06.955Z,13.53
2022-12-03T17:37:33.833Z,13.17
2022-12-03T17:40:00.876Z,12.20
2022-12-03T17:42:27.745Z,13.70
2022-12-03T17:44:54.457Z,12.53
2022-12-03T17:47:21.199Z,12.63
2022-12-03T17:49:47.852Z,12.40
2022-12-03T17:52:14.649Z,12.33
2022-12-03T17:55:08.357Z,12.00
2022-12-03T17:57:28.143Z,12.77
2022-12-03T17:59:55.191Z,12.47
2022-12-03T18:02:22.190Z,10.97
2022-12-03T18:04:49.116Z,10.97
2022-12-03T18:07:15.859Z,11.40
2022-12-03T18:09:42.899Z,10.87
2022-12-03T18:12:09.743Z,11.43
2022-12-03T18:14:36.676Z,11.00
2022-12-03T18:17:03.428Z,11.10
2022-12-03T18:19:30.191Z,12.23
2022-12-03T18:21:57.151Z,11.17
2022-12-03T18:24:24.508Z,10.67
2022-12-03T18:26:51.228Z,11.17
2022-12-03T18:29:17.978Z,12.20
2022-12-03T18:31:45.281Z,10.97
2022-12-03T18:34:12.263Z,9.93
2022-12-03T18:36:39.217Z,10.90
2022-12-03T18:39:09.353Z,11.07
2022-12-03T18:41:36.789Z,11.80
2022-12-03T18:44:06.773Z,11.77
2022-12-03T18:46:53.147Z,12.10
2022-12-03T18:49:23.893Z,11.37
2022-12-03T18:51:57.321Z,10.53
2022-12-03T18:54:25.879Z,10.33
2022-12-03T18:56:52.652Z,10.83
2022-12-03T18:59:19.372Z,12.20
2022-12-03T19:01:46.203Z,11.07
2022-12-03T19:04:12.994Z,10.67
2022-12-03T19:06:40.683Z,10.87
2022-12-03T19:09:07.449Z,10.40
2022-12-03T19:11:34.319Z,12.13
2022-12-03T19:14:03.005Z,11.53
2022-12-03T19:16:30.132Z,11.63
2022-12-03T19:18:57.255Z,10.93
2022-12-03T19:21:24.758Z,10.80
2022-12-03T19:24:22.639Z,10.57
2022-12-03T19:26:40.288Z,10.57
2022-12-03T19:29:07.252Z,11.97
2022-12-03T19:31:34.318Z,10.00
2022-12-03T19:34:01.241Z,10.80
2022-12-03T19:36:30.107Z,11.77
2022-12-03T19:38:58.999Z,10.00
2022-12-03T19:41:27.959Z,11.03
2022-12-03T19:43:55.994Z,10.43
2022-12-03T19:46:25.757Z,10.70
2022-12-03T19:48:54.298Z,11.57
2022-12-03T19:51:34.171Z,10.07
2022-12-03T19:54:04.663Z,11.70
2022-12-03T19:56:31.516Z,10.53
2022-12-03T19:58:59.186Z,11.27
2022-12-03T20:01:30.809Z,10.33
2022-12-03T20:03:59.755Z,11.13
2022-12-03T20:06:29.767Z,11.37
2022-12-03T20:09:00.936Z,10.47
2022-12-03T20:11:30.205Z,11.40
2022-12-03T20:13:59.580Z,9.83
2022-12-03T20:16:27.261Z,11.27
2022-12-03T20:18:59.610Z,10.53
2022-12-03T20:21:28.883Z,10.63
2022-12-03T20:23:55.774Z,10.70
2022-12-03T20:26:22.865Z,10.53
2022-12-03T20:28:50.244Z,10.30
2022-12-03T20:31:19.908Z,11.27
2022-12-03T20:33:49.323Z,10.97
2022-12-03T20:36:18.410Z,10.70
2022-12-03T20:38:45.561Z,10.87
2022-12-03T20:41:15.881Z,11.17
2022-12-03T20:43:43.061Z,11.90
2022-12-03T20:46:10.993Z,11.90
2022-12-03T20:48:38.460Z,11.67
2022-12-03T20:51:07.626Z,11.10
2022-12-03T20:53:34.814Z,11.83
2022-12-03T20:56:02.720Z,12.00
2022-12-03T20:58:31.617Z,10.80
2022-12-03T21:01:16.015Z,12.33
2022-12-03T21:03:43.388Z,13.00
2022-12-03T21:06:10.894Z,12.20
2022-12-03T21:08:42.482Z,12.70
2022-12-03T21:11:11.245Z,11.70
2022-12-03T21:13:41.327Z,12.70
2022-12-03T21:16:10.002Z,13.23
2022-12-03T21:18:36.936Z,13.20
2022-12-03T21:21:04.151Z,11.63
2022-12-03T21:23:32.584Z,13.20
2022-12-03T21:26:03.410Z,13.23
2022-12-03T21:28:30.872Z,13.67
2022-12-03T21:31:02.599Z,13.17
2022-12-03T21:33:30.654Z,12.50
2022-12-03T21:35:57.707Z,13.70
2022-12-03T21:38:25.554Z,12.77
2022-12-03T21:40:52.835Z,13.13
2022-12-03T21:43:19.685Z,12.57
2022-12-03T21:45:46.645Z,12.47
2022-12-03T21:48:14.782Z,13.20
2022-12-03T21:50:41.793Z,13.90
2022-12-03T21:53:09.391Z,13.30
2022-12-03T21:55:39.520Z,13.60
2022-12-03T21:58:09.436Z,13.77
2022-12-03T22:00:36.441Z,13.87
2022-12-03T22:03:03.402Z,14.30
2022-12-03T22:05:30.245Z,14.10
2022-12-03T22:07:57.037Z,15.00
2022-12-03T22:10:23.916Z,13.77
2022-12-03T22:12:50.641Z,14.20
2022-12-03T22:15:19.357Z,13.10
2022-12-03T22:17:47.153Z,14.40
2022-12-03T22:20:14.603Z,13.57
2022-12-03T22:22:41.497Z,13.60
2022-12-03T22:25:08.609Z,14.10
2022-12-03T22:27:35.486Z,15.00
2022-12-03T22:30:02.631Z,15.47
2022-12-03T22:32:29.403Z,14.10
2022-12-03T22:34:56.274Z,14.90
2022-12-03T22:37:23.000Z,13.60
2022-12-03T22:39:49.827Z,13.63
2022-12-03T22:42:16.644Z,13.47
2022-12-03T22:44:43.406Z,14.50
2022-12-03T22:47:10.232Z,15.90
2022-12-03T22:49:37.056Z,14.50
2022-12-03T22:52:03.944Z,14.80
2022-12-03T22:54:30.721Z,15.13
2022-12-03T22:56:57.370Z,13.07
2022-12-03T22:59:24.275Z,14.10
2022-12-03T23:01:51.014Z,14.40
2022-12-03T23:04:17.951Z,14.77
2022-12-03T23:06:44.669Z,14.10
2022-12-03T23:09:11.374Z,14.00
2022-12-03T23:11:38.307Z,14.27
2022-12-03T23:14:05.064Z,14.93
2022-12-03T23:16:33.202Z,14.73
2022-12-03T23:19:01.302Z,14.90
2022-12-03T23:21:31.176Z,14.70
2022-12-03T23:24:02.841Z,14.13
2022-12-03T23:26:29.799Z,15.20
2022-12-03T23:28:56.999Z,14.50
2022-12-03T23:31:25.145Z,15.53
2022-12-03T23:33:52.729Z,16.30
2022-12-03T23:36:19.962Z,14.47
2022-12-03T23:38:47.064Z,14.53
2022-12-03T23:41:16.674Z,14.30
2022-12-03T23:43:43.994Z,13.97
2022-12-03T23:46:23.376Z,13.53
2022-12-03T23:48:51.135Z,13.50
2022-12-03T23:51:21.655Z,14.77
2022-12-03T23:53:48.662Z,13.80
2022-12-03T23:56:18.893Z,13.70
2022-12-03T23:58:46.833Z,14.23
